createdAt,value
2022-10-10T00:00:40.390Z,22.27
2022-10-10T00:02:43.668Z,22.30
2022-10-10T00:04:46.958Z,14.82
2022-10-10T00:06:50.328Z,15.60
2022-10-10T00:08:55.153Z,22.92
2022-10-10T00:10:58.482Z,14.05
2022-10-10T00:13:03.678Z,18.40
2022-10-10T00:15:07.927Z,17.02
2022-10-10T00:17:11.281Z,19.30
2022-10-10T00:19:14.562Z,12.88
2022-10-10T00:21:17.874Z,17.05
2022-10-10T00:23:21.873Z,14.68
2022-10-10T00:25:25.395Z,14.30
2022-10-10T00:27:28.613Z,14.23
2022-10-10T00:29:33.360Z,18.38
2022-10-10T00:31:36.719Z,16.48
2022-10-10T00:33:39.993Z,15.00
2022-10-10T00:35:43.719Z,16.67
2022-10-10T00:37:47.030Z,16.70
2022-10-10T00:39:50.609Z,14.10
2022-10-10T00:41:53.873Z,14.40
2022-10-10T00:44:09.260Z,11.98
2022-10-10T00:46:13.945Z,20.80
2022-10-10T00:48:20.016Z,17.17
2022-10-10T00:50:24.886Z,12.93
2022-10-10T00:52:28.140Z,15.88
2022-10-10T00:54:34.572Z,19.88
2022-10-10T00:56:42.942Z,14.30
2022-10-10T00:58:49.344Z,12.43
2022-10-10T01:00:53.932Z,17.98
2022-10-10T01:02:58.526Z,15.10
2022-10-10T01:05:01.897Z,19.60
2022-10-10T01:07:07.644Z,13.52
2022-10-10T01:09:10.961Z,17.23
2022-10-10T01:11:35.591Z,10.60
2022-10-10T01:13:48.168Z,22.85
2022-10-10T01:15:57.366Z,17.00
2022-10-10T01:18:10.470Z,15.55
2022-10-10T01:20:34.326Z,20.48
2022-10-10T01:22:49.618Z,17.88
2022-10-10T01:25:02.343Z,25.33
2022-10-10T01:27:31.213Z,7.95
2022-10-10T01:29:40.420Z,19.42
2022-10-10T01:31:46.700Z,14.88
2022-10-10T01:33:56.111Z,20.90
2022-10-10T01:36:06.625Z,21.45
2022-10-10T01:38:21.356Z,10.43
2022-10-10T01:40:30.523Z,13.48
2022-10-10T01:42:39.656Z,20.13
2022-10-10T01:44:46.770Z,16.48
2022-10-10T01:46:50.004Z,12.02
2022-10-10T01:48:55.976Z,11.98
2022-10-10T01:51:22.013Z,17.83
2022-10-10T01:53:32.158Z,19.65
2022-10-10T01:55:57.438Z,18.02
2022-10-10T01:58:12.041Z,12.82
2022-10-10T02:00:18.647Z,19.13
2022-10-10T02:02:31.115Z,23.73
2022-10-10T02:04:40.034Z,16.70
2022-10-10T02:06:48.849Z,14.25
2022-10-10T02:08:55.409Z,21.40
2022-10-10T02:11:02.594Z,12.02
2022-10-10T02:13:07.382Z,15.95
2022-10-10T02:15:15.635Z,24.15
2022-10-10T02:17:21.499Z,21.75
2022-10-10T02:19:26.695Z,20.08
2022-10-10T02:21:30.977Z,19.15
2022-10-10T02:23:35.859Z,21.30
2022-10-10T02:25:41.304Z,14.60
2022-10-10T02:27:48.144Z,14.52
2022-10-10T02:29:54.902Z,14.35
2022-10-10T02:32:04.591Z,22.13
2022-10-10T02:34:13.404Z,16.08
2022-10-10T02:36:19.047Z,20.55
2022-10-10T02:38:22.901Z,18.73
2022-10-10T02:40:29.699Z,13.38
2022-10-10T02:42:33.399Z,15.15
2022-10-10T02:44:38.373Z,18.05
2022-10-10T02:46:42.255Z,20.70
2022-10-10T02:48:46.046Z,17.15
2022-10-10T02:50:50.811Z,21.52
2022-10-10T02:52:54.140Z,13.07
2022-10-10T02:54:57.585Z,20.42
2022-10-10T02:57:00.800Z,14.30
2022-10-10T02:59:04.040Z,21.15
2022-10-10T03:01:07.650Z,10.98
2022-10-10T03:03:10.884Z,13.50
2022-10-10T03:05:14.362Z,18.83
2022-10-10T03:07:18.996Z,17.65
2022-10-10T03:09:22.271Z,16.27
2022-10-10T03:11:25.476Z,21.92
2022-10-10T03:13:28.906Z,13.40
2022-10-10T03:15:32.114Z,15.68
2022-10-10T03:17:35.307Z,14.05
2022-10-10T03:19:38.693Z,19.83
2022-10-10T03:21:41.875Z,16.52
2022-10-10T03:23:46.597Z,20.30
2022-10-10T03:25:50.297Z,15.63
2022-10-10T03:27:53.617Z,18.05
2022-10-10T03:29:56.757Z,19.63
2022-10-10T03:32:00.074Z,11.80
2022-10-10T03:34:03.370Z,26.35
2022-10-10T03:36:07.041Z,21.77
2022-10-10T03:38:11.709Z,13.20
2022-10-10T03:40:16.489Z,16.08
2022-10-10T03:42:19.784Z,12.23
2022-10-10T03:44:23.129Z,17.17
2022-10-10T03:46:26.609Z,15.80
2022-10-10T03:48:29.845Z,17.35
2022-10-10T03:50:33.207Z,15.95
2022-10-10T03:52:36.596Z,9.93
2022-10-10T03:54:39.800Z,10.90
2022-10-10T03:56:44.605Z,16.35
2022-10-10T03:58:47.898Z,15.18
2022-10-10T04:00:56.042Z,20.10
2022-10-10T04:02:59.437Z,14.73
2022-10-10T04:05:02.629Z,18.25
2022-10-10T04:07:05.954Z,8.98
2022-10-10T04:09:09.265Z,13.18
2022-10-10T04:11:12.580Z,14.63
2022-10-10T04:13:17.318Z,13.18
2022-10-10T04:15:20.657Z,10.43
2022-10-10T04:17:23.892Z,13.50
2022-10-10T04:19:27.329Z,19.65
2022-10-10T04:21:30.525Z,14.25
2022-10-10T04:23:33.927Z,13.30
2022-10-10T04:25:37.223Z,15.38
2022-10-10T04:27:40.558Z,7.05
2022-10-10T04:29:45.141Z,15.23
2022-10-10T04:31:48.516Z,11.32
2022-10-10T04:33:51.850Z,15.30
2022-10-10T04:35:55.192Z,14.95
2022-10-10T04:37:58.402Z,14.40
2022-10-10T04:40:01.935Z,13.23
2022-10-10T04:42:05.197Z,15.20
2022-10-10T04:44:08.588Z,17.90
2022-10-10T04:46:13.335Z,15.02
2022-10-10T04:48:16.647Z,20.00
2022-10-10T04:50:19.961Z,18.08
2022-10-10T04:52:23.253Z,16.80
2022-10-10T04:54:26.502Z,14.65
2022-10-10T04:56:29.751Z,16.92
2022-10-10T04:58:33.009Z,20.20
2022-10-10T05:00:36.222Z,21.00
2022-10-10T05:02:40.866Z,16.23
2022-10-10T05:04:44.145Z,11.95
2022-10-10T05:06:47.340Z,19.10
2022-10-10T05:08:50.560Z,21.08
2022-10-10T05:10:54.783Z,15.77
2022-10-10T05:12:58.051Z,15.43
2022-10-10T05:15:01.448Z,14.73
2022-10-10T05:17:04.999Z,21.05
2022-10-10T05:19:09.659Z,25.38
2022-10-10T05:21:13.100Z,21.23
2022-10-10T05:23:16.867Z,11.10
2022-10-10T05:25:20.330Z,15.00
2022-10-10T05:27:23.553Z,15.80
2022-10-10T05:29:26.896Z,14.82
2022-10-10T05:31:30.596Z,8.85
2022-10-10T05:33:34.419Z,13.95
2022-10-10T05:35:39.199Z,25.05
2022-10-10T05:37:42.343Z,21.73
2022-10-10T05:39:45.737Z,20.98
2022-10-10T05:41:48.964Z,16.90
2022-10-10T05:43:52.271Z,29.85
2022-10-10T05:45:55.683Z,15.18
2022-10-10T05:47:58.933Z,16.85
2022-10-10T05:50:02.104Z,13.15
2022-10-10T05:52:06.742Z,21.45
2022-10-10T05:54:10.193Z,16.95
2022-10-10T05:56:15.511Z,16.70
2022-10-10T05:58:18.746Z,14.07
2022-10-10T06:00:22.327Z,16.35
2022-10-10T06:02:25.685Z,15.48
2022-10-10T06:04:28.902Z,18.45
2022-10-10T06:06:32.330Z,12.93
2022-10-10T06:08:37.351Z,12.95
2022-10-10T06:10:42.810Z,13.25
2022-10-10T06:12:46.170Z,17.23
2022-10-10T06:14:49.645Z,8.63
2022-10-10T06:16:52.837Z,15.43
2022-10-10T06:18:57.850Z,18.23
2022-10-10T06:21:03.199Z,15.20
2022-10-10T06:23:07.881Z,9.55
2022-10-10T06:25:35.335Z,15.65
2022-10-10T06:27:35.753Z,12.75
2022-10-10T06:29:39.307Z,9.98
2022-10-10T06:31:42.643Z,19.17
2022-10-10T06:33:48.092Z,14.80
2022-10-10T06:35:51.430Z,19.38
2022-10-10T06:37:54.611Z,19.75
2022-10-10T06:39:57.809Z,19.95
2022-10-10T06:42:02.505Z,17.05
2022-10-10T06:44:05.702Z,23.20
2022-10-10T06:46:09.766Z,13.75
2022-10-10T06:48:14.693Z,14.32
2022-10-10T06:50:18.359Z,18.75
2022-10-10T06:52:21.580Z,15.88
2022-10-10T06:54:24.852Z,19.77
2022-10-10T06:56:28.629Z,22.55
2022-10-10T06:58:34.619Z,19.42
2022-10-10T07:00:37.852Z,17.80
2022-10-10T07:02:42.710Z,19.60
2022-10-10T07:04:45.893Z,21.00
2022-10-10T07:06:49.184Z,17.92
2022-10-10T07:08:53.006Z,19.63
2022-10-10T07:10:57.002Z,22.60
2022-10-10T07:13:00.252Z,14.98
2022-10-10T07:15:05.359Z,21.30
2022-10-10T07:17:08.986Z,18.80
2022-10-10T07:19:12.335Z,18.52
2022-10-10T07:21:15.537Z,12.30
2022-10-10T07:23:19.097Z,17.42
2022-10-10T07:25:22.697Z,18.83
2022-10-10T07:27:26.055Z,17.25
2022-10-10T07:29:30.592Z,13.93
2022-10-10T07:31:35.396Z,11.85
2022-10-10T07:33:40.700Z,13.80
2022-10-10T07:35:44.463Z,16.23
2022-10-10T07:37:48.146Z,20.00
2022-10-10T07:39:53.611Z,14.65
2022-10-10T07:41:57.226Z,15.45
2022-10-10T07:44:00.840Z,15.32
2022-10-10T07:46:06.983Z,16.95
2022-10-10T07:48:14.943Z,17.67
2022-10-10T07:50:18.574Z,13.88
2022-10-10T07:52:22.215Z,14.65
2022-10-10T07:54:25.723Z,18.27
2022-10-10T07:56:29.344Z,21.92
2022-10-10T07:58:33.036Z,14.32
2022-10-10T08:00:37.726Z,18.85
2022-10-10T08:02:41.344Z,16.75
2022-10-10T08:04:46.518Z,12.63
2022-10-10T08:06:50.117Z,19.10
2022-10-10T08:08:53.513Z,12.23
2022-10-10T08:10:58.262Z,17.98
2022-10-10T08:13:02.295Z,17.23
2022-10-10T08:15:07.617Z,20.42
2022-10-10T08:17:11.219Z,22.85
2022-10-10T08:19:15.022Z,19.90
2022-10-10T08:21:20.737Z,8.80
2022-10-10T08:23:24.459Z,15.35
2022-10-10T08:25:28.163Z,20.65
2022-10-10T08:27:31.816Z,20.70
2022-10-10T08:29:35.404Z,9.35
2022-10-10T08:31:38.993Z,14.90
2022-10-10T08:33:44.225Z,16.30
2022-10-10T08:35:48.226Z,12.82
2022-10-10T08:37:53.585Z,21.33
2022-10-10T08:39:57.861Z,17.05
2022-10-10T08:42:03.701Z,22.27
2022-10-10T08:44:14.802Z,17.27
2022-10-10T08:46:23.495Z,24.00
2022-10-10T08:48:32.507Z,20.60
2022-10-10T08:50:41.976Z,18.63
2022-10-10T08:52:51.722Z,22.25
2022-10-10T08:54:58.983Z,18.83
2022-10-10T08:57:06.913Z,14.25
2022-10-10T08:59:18.040Z,20.48
2022-10-10T09:01:28.662Z,21.90
2022-10-10T09:03:39.197Z,16.48
2022-10-10T09:05:54.918Z,18.70
2022-10-10T09:08:21.221Z,15.60
2022-10-10T09:10:37.028Z,19.88
2022-10-10T09:12:49.632Z,16.52
2022-10-10T09:15:02.675Z,14.18
2022-10-10T09:19:30.177Z,16.35
2022-10-10T09:21:36.864Z,24.25
2022-10-10T09:23:45.962Z,26.90
2022-10-10T09:25:57.606Z,18.58
2022-10-10T09:28:07.043Z,18.05
2022-10-10T09:30:19.030Z,18.98
2022-10-10T09:32:27.091Z,15.50
2022-10-10T09:34:37.908Z,20.60
2022-10-10T09:36:42.846Z,15.25
2022-10-10T09:38:51.975Z,11.73
2022-10-10T09:41:01.946Z,15.10
2022-10-10T09:43:15.479Z,24.23
2022-10-10T09:45:21.396Z,15.20
2022-10-10T09:47:25.886Z,15.57
2022-10-10T09:49:31.302Z,21.13
2022-10-10T09:51:36.106Z,13.40
2022-10-10T09:53:39.726Z,21.02
2022-10-10T09:55:44.503Z,17.92
2022-10-10T09:57:51.959Z,20.98
2022-10-10T09:59:55.723Z,19.80
2022-10-10T10:02:04.494Z,18.77
2022-10-10T10:04:27.850Z,17.45
2022-10-10T10:06:33.157Z,19.90
2022-10-10T10:08:38.623Z,13.77
2022-10-10T10:10:42.332Z,25.33
2022-10-10T10:12:47.126Z,25.67
2022-10-10T10:14:54.732Z,14.43
2022-10-10T10:17:11.436Z,19.85
2022-10-10T10:19:31.673Z,24.08
2022-10-10T10:21:51.632Z,21.83
2022-10-10T10:24:01.142Z,18.52
2022-10-10T10:26:06.938Z,19.73
2022-10-10T10:28:21.008Z,17.30
2022-10-10T10:30:27.210Z,19.50
2022-10-10T10:32:42.690Z,13.07
2022-10-10T10:35:07.751Z,21.95
2022-10-10T10:37:20.369Z,19.58
2022-10-10T10:39:42.667Z,18.15
2022-10-10T10:41:55.324Z,17.20
2022-10-10T10:44:18.770Z,20.90
2022-10-10T10:46:34.129Z,22.13
2022-10-10T10:48:45.526Z,22.05
2022-10-10T10:50:55.801Z,22.63
2022-10-10T10:53:05.788Z,22.55
2022-10-10T10:55:18.824Z,22.80
2022-10-10T10:57:40.815Z,23.38
2022-10-10T11:00:17.193Z,27.27
2022-10-10T11:02:56.112Z,14.30
2022-10-10T11:05:31.085Z,25.90
2022-10-10T11:07:50.568Z,18.40
2022-10-10T11:10:00.033Z,18.58
2022-10-10T11:12:15.279Z,24.30
2022-10-10T11:14:37.012Z,15.63
2022-10-10T11:16:49.155Z,26.33
2022-10-10T11:19:16.530Z,21.87
2022-10-10T11:21:24.776Z,22.50
2022-10-10T11:23:34.905Z,23.58
2022-10-10T11:25:44.713Z,25.35
2022-10-10T11:27:54.481Z,25.67
2022-10-10T11:30:08.406Z,16.27
2022-10-10T11:34:35.699Z,25.65
2022-10-10T11:36:43.160Z,21.08
2022-10-10T11:38:52.874Z,22.58
2022-10-10T11:40:59.771Z,20.30
2022-10-10T11:43:07.473Z,22.30
2022-10-10T11:45:17.336Z,17.20
2022-10-10T11:47:30.228Z,18.92
2022-10-10T11:49:41.721Z,26.45
2022-10-10T11:52:21.343Z,16.77
2022-10-10T11:54:35.071Z,15.95
2022-10-10T11:56:42.712Z,24.98
2022-10-10T11:58:51.103Z,29.05
2022-10-10T12:00:59.229Z,26.00
2022-10-10T12:03:02.935Z,22.00
2022-10-10T12:05:19.972Z,17.58
2022-10-10T12:07:27.681Z,25.55
2022-10-10T12:09:35.591Z,18.40
2022-10-10T12:11:44.257Z,21.80
2022-10-10T12:13:51.085Z,22.08
2022-10-10T12:15:57.355Z,18.48
2022-10-10T12:18:02.408Z,22.40
2022-10-10T12:20:33.462Z,20.65
2022-10-10T12:22:37.579Z,16.02
2022-10-10T12:25:10.153Z,20.25
2022-10-10T12:27:45.431Z,18.95
2022-10-10T12:30:11.041Z,30.38
2022-10-10T12:32:29.197Z,20.23
2022-10-10T12:34:44.415Z,23.85
2022-10-10T12:37:22.494Z,19.70
2022-10-10T12:39:39.117Z,17.95
2022-10-10T12:41:56.684Z,20.52
2022-10-10T12:44:42.926Z,20.42
2022-10-10T12:46:49.024Z,18.60
2022-10-10T12:49:05.957Z,21.63
2022-10-10T12:51:21.461Z,16.50
2022-10-10T12:53:29.515Z,19.33
2022-10-10T12:55:41.659Z,26.63
2022-10-10T12:57:47.655Z,25.48
2022-10-10T12:59:51.738Z,19.40
2022-10-10T13:01:58.619Z,15.80
2022-10-10T13:04:03.603Z,23.75
2022-10-10T13:06:15.130Z,19.42
2022-10-10T13:08:21.171Z,16.05
2022-10-10T13:10:29.021Z,24.83
2022-10-10T13:12:34.361Z,21.75
2022-10-10T13:14:43.493Z,14.40
2022-10-10T13:16:47.112Z,18.73
2022-10-10T13:18:53.913Z,19.38
2022-10-10T13:20:58.924Z,26.13
2022-10-10T13:23:06.841Z,22.45
2022-10-10T13:25:12.516Z,19.50
2022-10-10T13:27:22.518Z,23.00
2022-10-10T13:29:30.684Z,23.45
2022-10-10T13:31:34.323Z,20.50
2022-10-10T13:33:37.961Z,18.55
2022-10-10T13:35:41.628Z,18.40
2022-10-10T13:37:47.673Z,15.63
2022-10-10T13:39:52.689Z,21.17
2022-10-10T13:41:57.370Z,21.27
2022-10-10T13:44:02.447Z,17.17
2022-10-10T13:46:05.995Z,22.88
2022-10-10T13:48:28.953Z,14.90
2022-10-10T13:50:34.466Z,15.05
2022-10-10T13:52:38.447Z,14.88
2022-10-10T13:54:44.625Z,23.35
2022-10-10T13:56:48.651Z,19.45
2022-10-10T13:58:55.344Z,20.77
2022-10-10T14:01:04.756Z,16.00
2022-10-10T14:03:17.172Z,25.45
2022-10-10T14:05:28.346Z,20.10
2022-10-10T14:07:32.948Z,16.20
2022-10-10T14:09:40.335Z,19.27
2022-10-10T14:11:44.726Z,15.05
2022-10-10T14:13:52.050Z,21.00
2022-10-10T14:15:56.420Z,16.38
2022-10-10T14:18:01.561Z,15.43
2022-10-10T14:20:13.520Z,12.45
2022-10-10T14:22:17.633Z,13.77
2022-10-10T14:24:21.537Z,15.80
2022-10-10T14:26:25.233Z,19.70
2022-10-10T14:28:32.196Z,9.98
2022-10-10T14:30:38.130Z,12.63
2022-10-10T14:32:43.188Z,26.33
2022-10-10T14:34:49.543Z,15.48
2022-10-10T14:36:53.216Z,13.40
2022-10-10T14:38:57.281Z,15.52
2022-10-10T14:41:02.041Z,13.95
2022-10-10T14:43:06.408Z,14.85
2022-10-10T14:45:15.359Z,17.35
2022-10-10T14:47:21.328Z,13.75
2022-10-10T14:49:24.903Z,20.00
2022-10-10T14:51:34.727Z,14.02
2022-10-10T14:53:39.452Z,20.05
2022-10-10T14:55:44.365Z,12.15
2022-10-10T14:57:48.124Z,8.82
2022-10-10T14:59:52.300Z,16.00
2022-10-10T15:01:55.978Z,15.93
2022-10-10T15:03:59.675Z,17.15
2022-10-10T15:06:03.468Z,17.98
2022-10-10T15:08:09.804Z,15.18
2022-10-10T15:12:41.963Z,10.77
2022-10-10T15:14:45.713Z,19.23
2022-10-10T15:16:51.464Z,14.13
2022-10-10T15:18:55.495Z,17.38
2022-10-10T15:21:00.199Z,15.45
2022-10-10T15:23:08.910Z,11.85
2022-10-10T15:25:14.947Z,11.65
2022-10-10T15:27:18.827Z,16.33
2022-10-10T15:29:22.651Z,15.57
2022-10-10T15:31:32.934Z,13.50
2022-10-10T15:33:36.862Z,17.48
2022-10-10T15:36:07.561Z,13.52
2022-10-10T15:38:04.624Z,12.85
2022-10-10T15:40:11.072Z,11.23
2022-10-10T15:42:21.451Z,11.80
2022-10-10T15:44:26.559Z,11.48
2022-10-10T15:46:30.777Z,13.75
2022-10-10T15:48:34.247Z,12.88
2022-10-10T15:50:43.329Z,17.00
2022-10-10T15:52:49.207Z,11.25
2022-10-10T15:54:52.766Z,14.45
2022-10-10T15:56:58.602Z,13.52
2022-10-10T15:59:03.830Z,22.92
2022-10-10T16:01:11.931Z,15.25
2022-10-10T16:03:16.211Z,8.85
2022-10-10T16:05:20.122Z,18.77
2022-10-10T16:07:29.202Z,16.17
2022-10-10T16:09:34.684Z,19.90
2022-10-10T16:11:39.366Z,18.13
2022-10-10T16:13:49.942Z,15.93
2022-10-10T16:16:00.506Z,22.88
2022-10-10T16:18:04.231Z,24.15
2022-10-10T16:20:08.633Z,16.38
2022-10-10T16:22:13.334Z,12.88
2022-10-10T16:24:17.267Z,14.40
2022-10-10T16:26:23.695Z,18.88
2022-10-10T16:28:27.546Z,18.33
2022-10-10T16:30:32.598Z,30.27
2022-10-10T16:32:41.755Z,11.77
2022-10-10T16:34:46.321Z,28.00
2022-10-10T16:36:50.785Z,41.50
2022-10-10T16:38:57.702Z,18.15
2022-10-10T16:41:05.546Z,18.42
2022-10-10T16:43:11.573Z,15.18
2022-10-10T16:45:18.527Z,12.20
2022-10-10T16:47:24.410Z,21.90
2022-10-10T16:49:32.305Z,16.50
2022-10-10T16:51:36.345Z,25.30
2022-10-10T16:53:41.922Z,18.73
2022-10-10T16:55:47.595Z,24.95
2022-10-10T16:57:59.466Z,19.25
2022-10-10T17:00:03.288Z,17.52
2022-10-10T17:02:06.928Z,27.73
2022-10-10T17:04:11.991Z,15.60
2022-10-10T17:06:19.305Z,20.98
2022-10-10T17:08:23.287Z,26.13
2022-10-10T17:10:27.414Z,30.70
2022-10-10T17:12:31.118Z,21.08
2022-10-10T17:14:34.839Z,26.05
2022-10-10T17:17:10.960Z,42.63
2022-10-10T17:21:10.584Z,26.48
2022-10-10T17:23:15.579Z,23.77
2022-10-10T17:25:19.624Z,52.55
2022-10-10T17:27:23.407Z,25.73
2022-10-10T17:29:27.357Z,24.88
2022-10-10T17:31:31.415Z,31.90
2022-10-10T17:33:35.075Z,27.92
2022-10-10T17:35:42.339Z,36.60
2022-10-10T17:37:47.553Z,25.00
2022-10-10T17:39:51.212Z,22.27
2022-10-10T17:41:55.310Z,36.95
2022-10-10T17:43:59.056Z,23.50
2022-10-10T17:46:29.138Z,34.58
2022-10-10T17:48:27.555Z,21.00
2022-10-10T17:50:31.744Z,21.35
2022-10-10T17:52:35.598Z,23.65
2022-10-10T17:54:40.644Z,31.40
2022-10-10T17:56:45.234Z,28.90
2022-10-10T17:58:50.992Z,20.40
2022-10-10T18:01:00.481Z,21.08
2022-10-10T18:03:08.689Z,21.98
2022-10-10T18:05:12.419Z,21.70
2022-10-10T18:07:18.793Z,23.88
2022-10-10T18:09:22.872Z,21.58
2022-10-10T18:11:31.897Z,24.13
2022-10-10T18:13:36.460Z,29.63
2022-10-10T18:15:41.640Z,22.40
2022-10-10T18:17:45.563Z,20.58
2022-10-10T18:19:49.158Z,26.90
2022-10-10T18:21:53.306Z,21.73
2022-10-10T18:23:57.249Z,20.80
2022-10-10T18:26:02.235Z,34.72
2022-10-10T18:28:07.627Z,26.83
2022-10-10T18:30:13.582Z,30.75
2022-10-10T18:32:18.107Z,49.92
2022-10-10T18:34:21.752Z,34.53
2022-10-10T18:36:27.092Z,36.10
2022-10-10T18:38:31.157Z,36.78
2022-10-10T18:40:35.048Z,52.22
2022-10-10T18:42:41.914Z,42.75
2022-10-10T18:44:47.294Z,33.42
2022-10-10T18:46:51.330Z,26.50
2022-10-10T18:48:55.150Z,27.65
2022-10-10T18:51:02.496Z,26.90
2022-10-10T18:53:06.195Z,33.65
2022-10-10T18:55:17.421Z,21.67
2022-10-10T18:57:21.073Z,25.67
2022-10-10T18:59:24.327Z,30.13
2022-10-10T19:01:30.519Z,32.15
2022-10-10T19:03:34.246Z,20.48
2022-10-10T19:05:41.254Z,26.42
2022-10-10T19:07:45.391Z,26.35
2022-10-10T19:09:48.712Z,27.58
2022-10-10T19:11:53.486Z,33.03
2022-10-10T19:13:57.883Z,29.17
2022-10-10T19:16:05.036Z,19.65
2022-10-10T19:18:10.693Z,35.38
2022-10-10T19:20:14.108Z,25.73
2022-10-10T19:22:17.565Z,22.23
2022-10-10T19:24:22.606Z,18.63
2022-10-10T19:26:26.170Z,68.32
2022-10-10T19:28:29.757Z,52.47
2022-10-10T19:30:33.759Z,86.93
2022-10-10T19:32:38.203Z,78.55
2022-10-10T19:34:47.042Z,106.20
2022-10-10T19:36:50.679Z,54.22
2022-10-10T19:38:55.981Z,44.50
2022-10-10T19:40:59.673Z,64.13
2022-10-10T19:43:04.049Z,53.88
2022-10-10T19:45:08.685Z,45.78
2022-10-10T19:47:12.260Z,36.92
2022-10-10T19:49:15.855Z,32.97
2022-10-10T19:51:21.129Z,30.15
2022-10-10T19:53:24.876Z,33.75
2022-10-10T19:55:28.252Z,42.30
2022-10-10T19:57:32.100Z,25.85
2022-10-10T19:59:35.629Z,30.35
2022-10-10T20:01:39.258Z,28.45
2022-10-10T20:03:43.312Z,24.48
2022-10-10T20:05:47.016Z,32.90
2022-10-10T20:07:52.868Z,23.75
2022-10-10T20:09:56.809Z,28.15
2022-10-10T20:12:00.594Z,23.02
2022-10-10T20:14:04.228Z,28.15
2022-10-10T20:16:10.684Z,25.55
2022-10-10T20:18:14.623Z,23.65
2022-10-10T20:20:18.561Z,26.67
2022-10-10T20:22:22.120Z,26.58
2022-10-10T20:24:31.056Z,22.85
2022-10-10T20:26:35.991Z,28.27
2022-10-10T20:28:39.575Z,19.45
2022-10-10T20:30:45.350Z,32.30
2022-10-10T20:32:49.788Z,31.42
2022-10-10T20:34:53.501Z,25.52
2022-10-10T20:36:57.323Z,27.25
2022-10-10T20:39:03.166Z,24.05
2022-10-10T20:41:09.599Z,31.77
2022-10-10T20:43:15.389Z,26.42
2022-10-10T20:45:19.506Z,29.45
2022-10-10T20:47:24.359Z,18.45
2022-10-10T20:49:29.372Z,28.10
2022-10-10T20:51:34.903Z,21.17
2022-10-10T20:53:42.500Z,36.45
2022-10-10T20:55:46.670Z,29.05
2022-10-10T20:57:52.199Z,25.23
2022-10-10T20:59:55.965Z,29.70
2022-10-10T21:02:00.208Z,31.55
2022-10-10T21:04:05.101Z,30.02
2022-10-10T21:06:13.366Z,35.97
2022-10-10T21:08:17.091Z,28.90
2022-10-10T21:10:20.849Z,33.63
2022-10-10T21:12:24.747Z,27.75
2022-10-10T21:14:30.321Z,31.95
2022-10-10T21:16:36.710Z,28.73
2022-10-10T21:18:41.951Z,25.17
2022-10-10T21:20:45.733Z,25.25
2022-10-10T21:22:50.029Z,26.08
2022-10-10T21:24:54.152Z,24.80
2022-10-10T21:26:58.099Z,24.38
2022-10-10T21:29:02.081Z,36.55
2022-10-10T21:31:07.967Z,19.88
2022-10-10T21:33:11.737Z,26.13
2022-10-10T21:35:15.808Z,19.75
2022-10-10T21:37:19.664Z,22.88
2022-10-10T21:39:23.576Z,24.33
2022-10-10T21:41:29.197Z,23.05
2022-10-10T21:43:33.303Z,25.83
2022-10-10T21:45:37.988Z,22.92
2022-10-10T21:47:44.733Z,25.27
2022-10-10T21:49:48.495Z,22.55
2022-10-10T21:51:52.282Z,21.15
2022-10-10T21:53:57.799Z,14.82
2022-10-10T21:56:05.987Z,18.83
2022-10-10T21:58:10.309Z,19.60
2022-10-10T22:00:15.082Z,26.48
2022-10-10T22:02:18.736Z,21.92
2022-10-10T22:04:28.074Z,20.27
2022-10-10T22:06:33.210Z,22.45
2022-10-10T22:08:37.508Z,21.15
2022-10-10T22:10:42.575Z,17.48
2022-10-10T22:12:49.334Z,17.92
2022-10-10T22:14:53.086Z,16.92
2022-10-10T22:16:56.890Z,15.48
2022-10-10T22:19:01.087Z,17.52
2022-10-10T22:21:07.921Z,21.10
2022-10-10T22:23:11.382Z,19.25
2022-10-10T22:25:18.061Z,11.35
2022-10-10T22:27:21.944Z,16.85
2022-10-10T22:29:25.900Z,18.35
2022-10-10T22:31:30.222Z,17.00
2022-10-10T22:33:33.881Z,11.65
2022-10-10T22:35:38.588Z,18.15
2022-10-10T22:37:43.780Z,25.42
2022-10-10T22:39:47.646Z,17.02
2022-10-10T22:41:51.321Z,12.88
2022-10-10T22:43:54.972Z,15.80
2022-10-10T22:45:58.755Z,18.98
2022-10-10T22:48:02.836Z,18.75
2022-10-10T22:50:07.463Z,21.63
2022-10-10T22:52:11.602Z,14.57
2022-10-10T22:54:16.712Z,14.27
2022-10-10T22:56:22.070Z,14.93
2022-10-10T22:58:25.788Z,14.80
2022-10-10T23:00:29.730Z,20.27
2022-10-10T23:02:33.574Z,27.27
2022-10-10T23:04:37.274Z,17.52
2022-10-10T23:06:41.779Z,16.65
2022-10-10T23:08:47.238Z,19.90
2022-10-10T23:10:52.429Z,17.50
2022-10-10T23:12:56.085Z,20.85
2022-10-10T23:14:59.362Z,13.15
2022-10-10T23:17:02.814Z,18.92
2022-10-10T23:19:06.266Z,15.10
2022-10-10T23:21:09.702Z,17.77
2022-10-10T23:23:13.083Z,16.05
2022-10-10T23:25:16.972Z,14.88
2022-10-10T23:27:22.044Z,23.13
2022-10-10T23:29:25.894Z,17.67
2022-10-10T23:31:29.521Z,20.08
2022-10-10T23:33:36.726Z,15.82
2022-10-10T23:35:41.364Z,15.80
2022-10-10T23:37:45.005Z,14.55
2022-10-10T23:39:48.673Z,15.75
2022-10-10T23:41:52.423Z,17.13
2022-10-10T23:43:57.551Z,18.27
2022-10-10T23:46:01.364Z,19.75
2022-10-10T23:48:05.559Z,17.00
2022-10-10T23:50:10.130Z,16.10
2022-10-10T23:52:13.868Z,18.35
2022-10-10T23:54:17.443Z,23.88
2022-10-10T23:56:21.042Z,15.88
2022-10-10T23:58:24.626Z,14.05
